AFR249 RPLL-LFPG
Flight info
| Callsign | AFR249 |
|---|---|
| Flight time | N/A |
| Altitude | 34000 |
| Route | SIRCA L628 DODUS W3 AKOTA A583 SABNO DCT LEGOD DCT BEKOL/K0935S1040 A461 SHL W22 TEPID W24 OSNOV G586 QP B330 ELKAL W179 IGNAK/K0926S1070 W179 WFX/K0922S1040 W179 IDVEM/K0926S1100 W179 OMBON Y1 SADAN W186 KAMUD/K0900F380 L141 TISIB L163 SR N193 OGOLI T898 DARVA/N0484F380 B476 METKA L88 RASAM N199 EDATA/N0491F400 M11 REBLO DCT CRM DCT MAKOL DCT ORTIP DCT MOPUG DCT ARSIN DCT RENKA L610 STAUB/N0406F240 L610 MAMOR DCT ASPAT DCT VIBOM DCT IDOSA DCT TOLVU/N0483F410 DCT RAPOR DCT VEDUS |
| Aircraft | A359/H-SDE2E3GHIJ3J4J5LM1ORWXY/LB1D1 |
Departure
| Time | 2026-05-04 15:05 |
|---|---|
| Airport | Ninoy Aquino International Airport (RPLL) |
Arrival
| Time | N/A |
|---|---|
| Airport | Charles de Gaulle International Airport (LFPG) |
| Time | Latitude | Longitude | Altitude | Speed | Heading |
|---|---|---|---|---|---|
| 2026-05-04 14:09 | 14.51659 | 121.01514 | 75 ft | 0 kts | 44° |
| 2026-05-04 14:46 | 14.51643 | 121.01497 | 64 ft | 4 kts | 46° |
| 2026-05-04 14:46 | 14.51624 | 121.01477 | 64 ft | 3 kts | 45° |
| 2026-05-04 14:46 | 14.51610 | 121.01462 | 64 ft | 4 kts | 69° |
| 2026-05-04 14:46 | 14.51607 | 121.01444 | 64 ft | 4 kts | 112° |
| 2026-05-04 14:47 | 14.51620 | 121.01421 | 64 ft | 4 kts | 132° |
| 2026-05-04 14:47 | 14.51630 | 121.01410 | 64 ft | 4 kts | 135° |
| 2026-05-04 14:50 | 14.51616 | 121.01425 | 64 ft | 7 kts | 135° |
| 2026-05-04 14:50 | 14.51581 | 121.01461 | 65 ft | 8 kts | 135° |
| 2026-05-04 14:51 | 14.51531 | 121.01512 | 64 ft | 10 kts | 135° |
| 2026-05-04 14:51 | 14.51481 | 121.01564 | 66 ft | 10 kts | 135° |
| 2026-05-04 14:51 | 14.51432 | 121.01614 | 64 ft | 10 kts | 135° |
| 2026-05-04 14:51 | 14.51383 | 121.01663 | 65 ft | 10 kts | 135° |
| 2026-05-04 14:52 | 14.51336 | 121.01713 | 69 ft | 10 kts | 134° |
| 2026-05-04 14:52 | 14.51289 | 121.01762 | 66 ft | 10 kts | 134° |
| 2026-05-04 14:52 | 14.51241 | 121.01812 | 67 ft | 10 kts | 134° |
| 2026-05-04 14:52 | 14.51227 | 121.01827 | 75 ft | 0 kts | 134° |
| 2026-05-04 14:56 | 14.51198 | 121.01858 | 65 ft | 9 kts | 134° |
| 2026-05-04 14:56 | 14.51152 | 121.01905 | 68 ft | 9 kts | 134° |
| 2026-05-04 14:57 | 14.51107 | 121.01951 | 66 ft | 9 kts | 137° |
| 2026-05-04 14:57 | 14.51062 | 121.01985 | 68 ft | 5 kts | 174° |
| 2026-05-04 14:57 | 14.51036 | 121.01969 | 70 ft | 4 kts | 226° |
| 2026-05-04 14:57 | 14.51019 | 121.01945 | 70 ft | 4 kts | 236° |
| 2026-05-04 14:58 | 14.50990 | 121.01895 | 65 ft | 13 kts | 239° |
| 2026-05-04 14:58 | 14.50936 | 121.01801 | 66 ft | 16 kts | 240° |
| 2026-05-04 14:58 | 14.50882 | 121.01702 | 66 ft | 16 kts | 240° |
| 2026-05-04 14:58 | 14.50827 | 121.01606 | 65 ft | 15 kts | 240° |
| 2026-05-04 14:59 | 14.50776 | 121.01511 | 64 ft | 15 kts | 240° |
| 2026-05-04 14:59 | 14.50725 | 121.01417 | 64 ft | 15 kts | 241° |
| 2026-05-04 14:59 | 14.50626 | 121.01240 | 64 ft | 14 kts | 239° |
| 2026-05-04 15:00 | 14.50576 | 121.01154 | 68 ft | 15 kts | 240° |
| 2026-05-04 15:00 | 14.50521 | 121.01053 | 70 ft | 16 kts | 240° |
| 2026-05-04 15:00 | 14.50465 | 121.00953 | 68 ft | 16 kts | 240° |
| 2026-05-04 15:01 | 14.50353 | 121.00752 | 65 ft | 16 kts | 240° |
| 2026-05-04 15:01 | 14.50298 | 121.00652 | 65 ft | 16 kts | 240° |
| 2026-05-04 15:01 | 14.50242 | 121.00551 | 64 ft | 16 kts | 240° |
| 2026-05-04 15:01 | 14.50185 | 121.00451 | 63 ft | 16 kts | 238° |
| 2026-05-04 15:02 | 14.50131 | 121.00355 | 64 ft | 15 kts | 240° |
| 2026-05-04 15:02 | 14.50080 | 121.00261 | 66 ft | 15 kts | 241° |
| 2026-05-04 15:02 | 14.50029 | 121.00169 | 66 ft | 15 kts | 240° |
| 2026-05-04 15:02 | 14.49979 | 121.00079 | 65 ft | 14 kts | 240° |
| 2026-05-04 15:03 | 14.49932 | 120.99994 | 67 ft | 12 kts | 240° |
| 2026-05-04 15:03 | 14.49876 | 120.99966 | 65 ft | 8 kts | 184° |
| 2026-05-04 15:03 | 14.49833 | 120.99991 | 71 ft | 7 kts | 136° |
| 2026-05-04 15:03 | 14.49818 | 121.00033 | 69 ft | 6 kts | 94° |
| 2026-05-04 15:04 | 14.49826 | 121.00076 | 69 ft | 9 kts | 71° |
| 2026-05-04 15:04 | 14.49940 | 121.00288 | 65 ft | 65 kts | 60° |
| 2026-05-04 15:04 | 14.50273 | 121.00883 | 64 ft | 124 kts | 57° |
| 2026-05-04 15:04 | 14.50789 | 121.01815 | 67 ft | 175 kts | 60° |
| 2026-05-04 15:05 | 14.51420 | 121.02873 | 816 ft | 159 kts | 52° |
| 2026-05-04 15:05 | 14.52042 | 121.03816 | 1506 ft | 163 kts | 56° |
| 2026-05-04 15:05 | 14.52631 | 121.04875 | 1960 ft | 174 kts | 62° |
| 2026-05-04 15:05 | 14.53189 | 121.05976 | 2332 ft | 174 kts | 63° |
| 2026-05-04 15:06 | 14.53759 | 121.07070 | 2714 ft | 174 kts | 62° |
| 2026-05-04 15:06 | 14.54360 | 121.08196 | 2922 ft | 185 kts | 62° |
| 2026-05-04 15:06 | 14.55010 | 121.09395 | 3134 ft | 196 kts | 61° |
| 2026-05-04 15:07 | 14.56443 | 121.11985 | 3514 ft | 222 kts | 59° |
| 2026-05-04 15:07 | 14.57531 | 121.13171 | 3686 ft | 237 kts | 30° |
| 2026-05-04 15:07 | 14.59163 | 121.13554 | 4053 ft | 247 kts | 2° |
| 2026-05-04 15:07 | 14.60893 | 121.13524 | 4468 ft | 252 kts | 1° |
| 2026-05-04 15:08 | 14.62676 | 121.13496 | 4885 ft | 257 kts | 2° |
| 2026-05-04 15:08 | 14.64453 | 121.13489 | 5302 ft | 260 kts | 2° |
| 2026-05-04 15:08 | 14.66267 | 121.13480 | 5743 ft | 263 kts | 360° |
| 2026-05-04 15:08 | 14.68062 | 121.13079 | 6157 ft | 268 kts | 335° |
| 2026-05-04 15:09 | 14.69481 | 121.11828 | 6598 ft | 273 kts | 305° |
| 2026-05-04 15:09 | 14.70129 | 121.09985 | 7000 ft | 278 kts | 275° |
| 2026-05-04 15:09 | 14.70146 | 121.07978 | 7449 ft | 281 kts | 269° |
| 2026-05-04 15:10 | 14.70056 | 121.03879 | 8361 ft | 288 kts | 270° |
| 2026-05-04 15:10 | 14.70029 | 121.01825 | 8821 ft | 291 kts | 270° |
| 2026-05-04 15:10 | 14.69321 | 120.97661 | 9588 ft | 305 kts | 249° |
| 2026-05-04 15:11 | 14.68556 | 120.95595 | 9962 ft | 311 kts | 249° |
| 2026-05-04 15:11 | 14.67776 | 120.93484 | 10273 ft | 319 kts | 249° |
| 2026-05-04 15:11 | 14.66979 | 120.91299 | 10498 ft | 330 kts | 249° |
| 2026-05-04 15:11 | 14.66161 | 120.89038 | 10738 ft | 341 kts | 249° |
| 2026-05-04 15:12 | 14.65322 | 120.86712 | 10976 ft | 351 kts | 249° |
| 2026-05-04 15:12 | 14.64460 | 120.84317 | 11192 ft | 361 kts | 249° |
| 2026-05-04 15:12 | 14.63573 | 120.81862 | 11418 ft | 370 kts | 249° |
| 2026-05-04 15:12 | 14.62667 | 120.79352 | 11625 ft | 378 kts | 249° |
| 2026-05-04 15:13 | 14.61737 | 120.76766 | 11833 ft | 386 kts | 249° |
| 2026-05-04 15:13 | 14.60793 | 120.74146 | 12080 ft | 392 kts | 249° |
| 2026-05-04 15:13 | 14.59837 | 120.71493 | 12403 ft | 395 kts | 249° |
| 2026-05-04 15:13 | 14.58876 | 120.68829 | 12751 ft | 397 kts | 249° |
| 2026-05-04 15:14 | 14.57908 | 120.66146 | 13117 ft | 399 kts | 249° |
| 2026-05-04 15:14 | 14.56936 | 120.63450 | 13466 ft | 401 kts | 249° |
| 2026-05-04 15:14 | 14.55962 | 120.60755 | 13816 ft | 402 kts | 249° |
| 2026-05-04 15:14 | 14.54982 | 120.58043 | 14099 ft | 404 kts | 249° |
| 2026-05-04 15:15 | 14.53997 | 120.55316 | 14395 ft | 406 kts | 249° |
| 2026-05-04 15:15 | 14.53006 | 120.52576 | 14700 ft | 408 kts | 249° |
| 2026-05-04 15:15 | 14.52025 | 120.49863 | 15011 ft | 409 kts | 249° |
| 2026-05-04 15:16 | 14.50024 | 120.44337 | 15605 ft | 412 kts | 249° |
| 2026-05-04 15:16 | 14.49018 | 120.41558 | 15901 ft | 414 kts | 249° |
| 2026-05-04 15:16 | 14.46991 | 120.35965 | 16478 ft | 418 kts | 249° |
| 2026-05-04 15:17 | 14.46131 | 120.33094 | 16754 ft | 420 kts | 258° |
| 2026-05-04 15:17 | 14.45404 | 120.27082 | 17340 ft | 424 kts | 265° |
| 2026-05-04 15:17 | 14.45227 | 120.24032 | 17623 ft | 426 kts | 266° |
| 2026-05-04 15:18 | 14.45075 | 120.20971 | 17893 ft | 428 kts | 266° |
| 2026-05-04 15:18 | 14.44913 | 120.17892 | 18173 ft | 430 kts | 266° |
| 2026-05-04 15:18 | 14.44734 | 120.14845 | 18412 ft | 432 kts | 265° |
| 2026-05-04 15:19 | 14.44320 | 120.08637 | 18896 ft | 435 kts | 265° |
| 2026-05-04 15:19 | 14.44098 | 120.05516 | 19140 ft | 436 kts | 265° |
| 2026-05-04 15:19 | 14.43643 | 119.99249 | 19640 ft | 439 kts | 265° |
| 2026-05-04 15:20 | 14.43414 | 119.96101 | 19867 ft | 440 kts | 265° |
| 2026-05-04 15:20 | 14.43187 | 119.92940 | 20114 ft | 442 kts | 265° |
| 2026-05-04 15:20 | 14.42960 | 119.89781 | 20355 ft | 443 kts | 265° |
| 2026-05-04 15:20 | 14.42732 | 119.86609 | 20605 ft | 444 kts | 265° |
| 2026-05-04 15:21 | 14.42502 | 119.83427 | 20853 ft | 445 kts | 265° |
| 2026-05-04 15:21 | 14.42270 | 119.80231 | 21108 ft | 446 kts | 265° |
| 2026-05-04 15:21 | 14.41811 | 119.73877 | 21611 ft | 449 kts | 265° |
| 2026-05-04 15:22 | 14.41576 | 119.70662 | 21859 ft | 450 kts | 265° |
| 2026-05-04 15:22 | 14.41339 | 119.67440 | 22106 ft | 451 kts | 265° |
| 2026-05-04 15:22 | 14.40862 | 119.60964 | 22620 ft | 454 kts | 265° |
| 2026-05-04 15:23 | 14.40683 | 119.57714 | 22864 ft | 456 kts | 269° |
| 2026-05-04 15:23 | 14.40898 | 119.54445 | 23114 ft | 457 kts | 278° |
| 2026-05-04 15:23 | 14.41648 | 119.51249 | 23352 ft | 459 kts | 289° |
| 2026-05-04 15:23 | 14.42969 | 119.48256 | 23571 ft | 461 kts | 300° |
| 2026-05-04 15:24 | 14.46954 | 119.43037 | 23948 ft | 465 kts | 312° |
| 2026-05-04 15:24 | 14.51230 | 119.38382 | 24354 ft | 467 kts | 314° |
| 2026-05-04 15:25 | 14.53491 | 119.35968 | 24575 ft | 469 kts | 313° |
| 2026-05-04 15:25 | 14.55748 | 119.33541 | 24807 ft | 469 kts | 313° |
| 2026-05-04 15:25 | 14.58003 | 119.31094 | 25036 ft | 471 kts | 313° |
| 2026-05-04 15:26 | 14.62467 | 119.26195 | 25521 ft | 473 kts | 313° |
| 2026-05-04 15:26 | 14.64730 | 119.23697 | 25758 ft | 474 kts | 312° |
| 2026-05-04 15:26 | 14.69255 | 119.18697 | 26287 ft | 477 kts | 312° |
| 2026-05-04 15:27 | 14.71524 | 119.16188 | 26544 ft | 479 kts | 312° |
| 2026-05-04 15:27 | 14.76081 | 119.11151 | 27073 ft | 482 kts | 312° |
| 2026-05-04 15:28 | 14.80672 | 119.06075 | 27613 ft | 485 kts | 312° |
| 2026-05-04 15:28 | 14.82979 | 119.03523 | 27881 ft | 486 kts | 312° |
| 2026-05-04 15:28 | 14.87582 | 118.98432 | 28405 ft | 489 kts | 312° |
| 2026-05-04 15:29 | 14.89910 | 118.95856 | 28655 ft | 491 kts | 311° |
| 2026-05-04 15:30 | 14.99287 | 118.85461 | 29592 ft | 497 kts | 311° |
| 2026-05-04 15:30 | 15.06395 | 118.77572 | 30200 ft | 501 kts | 311° |
| 2026-05-04 15:31 | 15.11133 | 118.72312 | 30564 ft | 503 kts | 311° |
| 2026-05-04 15:31 | 15.13521 | 118.69661 | 30751 ft | 504 kts | 311° |
| 2026-05-04 15:32 | 15.20663 | 118.61719 | 31534 ft | 500 kts | 311° |
| 2026-05-04 15:32 | 15.25386 | 118.56461 | 31933 ft | 499 kts | 311° |
| 2026-05-04 15:34 | 15.37191 | 118.43307 | 31943 ft | 498 kts | 311° |
| 2026-05-04 15:34 | 15.44238 | 118.35443 | 31946 ft | 497 kts | 311° |
| 2026-05-04 15:35 | 15.51289 | 118.27566 | 31945 ft | 497 kts | 311° |
| 2026-05-04 15:36 | 15.58313 | 118.19712 | 31943 ft | 496 kts | 311° |
| 2026-05-04 15:36 | 15.63010 | 118.14455 | 31945 ft | 496 kts | 311° |
| 2026-05-04 15:37 | 15.66914 | 118.10083 | 31944 ft | 496 kts | 311° |
| 2026-05-04 15:37 | 15.72315 | 118.04028 | 31960 ft | 497 kts | 311° |
| 2026-05-04 15:38 | 15.74657 | 118.01401 | 32112 ft | 497 kts | 311° |
| 2026-05-04 15:38 | 15.76248 | 117.99616 | 32291 ft | 496 kts | 311° |
| 2026-05-04 15:38 | 15.78585 | 117.96994 | 32562 ft | 494 kts | 311° |
| 2026-05-04 15:38 | 15.80886 | 117.94412 | 32782 ft | 493 kts | 311° |
| 2026-05-04 15:39 | 15.83239 | 117.91769 | 33007 ft | 492 kts | 311° |
| 2026-05-04 15:39 | 15.85532 | 117.89193 | 33225 ft | 491 kts | 311° |
| 2026-05-04 15:39 | 15.90161 | 117.83990 | 33643 ft | 490 kts | 311° |
| 2026-05-04 15:40 | 15.92480 | 117.81382 | 33844 ft | 489 kts | 311° |
| 2026-05-04 15:40 | 15.97111 | 117.76169 | 33951 ft | 494 kts | 311° |
| 2026-05-04 15:41 | 16.01789 | 117.70899 | 33945 ft | 495 kts | 311° |
| 2026-05-04 15:41 | 16.06438 | 117.65661 | 33947 ft | 495 kts | 311° |
| 2026-05-04 15:42 | 16.11102 | 117.60402 | 33948 ft | 495 kts | 311° |
| 2026-05-04 15:42 | 16.15768 | 117.55136 | 33947 ft | 495 kts | 311° |
| 2026-05-04 15:43 | 16.20434 | 117.49866 | 33947 ft | 495 kts | 310° |
| 2026-05-04 15:43 | 16.25107 | 117.44584 | 33947 ft | 495 kts | 310° |
| 2026-05-04 15:44 | 16.29776 | 117.39302 | 33949 ft | 495 kts | 310° |
| 2026-05-04 15:44 | 16.34445 | 117.34017 | 33949 ft | 495 kts | 310° |
| 2026-05-04 15:45 | 16.39105 | 117.28738 | 33953 ft | 495 kts | 310° |
| 2026-05-04 15:45 | 16.43748 | 117.23507 | 33947 ft | 495 kts | 312° |
| 2026-05-04 15:46 | 16.49230 | 117.19138 | 33955 ft | 499 kts | 328° |
| 2026-05-04 15:46 | 16.55369 | 117.15714 | 33955 ft | 501 kts | 330° |
| 2026-05-04 15:47 | 16.61597 | 117.12441 | 33952 ft | 501 kts | 330° |
| 2026-05-04 15:47 | 16.67826 | 117.09167 | 33953 ft | 501 kts | 330° |
| 2026-05-04 15:48 | 16.74056 | 117.05861 | 33956 ft | 502 kts | 330° |
| 2026-05-04 15:48 | 16.83338 | 117.00908 | 33954 ft | 502 kts | 330° |
| 2026-05-04 15:49 | 16.89564 | 116.97583 | 33958 ft | 502 kts | 330° |
| 2026-05-04 15:49 | 16.95781 | 116.94260 | 33957 ft | 502 kts | 330° |
| 2026-05-04 15:50 | 17.01999 | 116.90935 | 33959 ft | 502 kts | 330° |
| 2026-05-04 15:50 | 17.08225 | 116.87604 | 33956 ft | 502 kts | 330° |
| 2026-05-04 15:51 | 17.14454 | 116.84268 | 33961 ft | 502 kts | 330° |
| 2026-05-04 15:51 | 17.20677 | 116.80933 | 33959 ft | 502 kts | 330° |
| 2026-05-04 15:52 | 17.26871 | 116.77611 | 33960 ft | 503 kts | 330° |
| 2026-05-04 15:52 | 17.33093 | 116.74272 | 33957 ft | 503 kts | 330° |
| 2026-05-04 15:53 | 17.39320 | 116.70927 | 33964 ft | 502 kts | 329° |
| 2026-05-04 15:53 | 17.45539 | 116.67584 | 33961 ft | 502 kts | 329° |
| 2026-05-04 15:54 | 17.51756 | 116.64240 | 33960 ft | 502 kts | 329° |
| 2026-05-04 15:54 | 17.57925 | 116.60918 | 33963 ft | 501 kts | 329° |
| 2026-05-04 15:55 | 17.64130 | 116.57575 | 33964 ft | 501 kts | 329° |
| 2026-05-04 15:55 | 17.70336 | 116.54228 | 33962 ft | 500 kts | 329° |
| 2026-05-04 15:56 | 17.76521 | 116.50891 | 33966 ft | 500 kts | 329° |
| 2026-05-04 15:56 | 17.82669 | 116.47577 | 33962 ft | 499 kts | 329° |
| 2026-05-04 15:57 | 17.88843 | 116.44237 | 33966 ft | 498 kts | 329° |
| 2026-05-04 15:57 | 17.95001 | 116.40902 | 33968 ft | 498 kts | 329° |
| 2026-05-04 15:58 | 18.01158 | 116.37567 | 33968 ft | 497 kts | 329° |
| 2026-05-04 15:58 | 18.07312 | 116.34233 | 33970 ft | 497 kts | 329° |
| 2026-05-04 15:59 | 18.13459 | 116.30900 | 33974 ft | 496 kts | 329° |
| 2026-05-04 15:59 | 18.19556 | 116.27591 | 33975 ft | 496 kts | 329° |
| 2026-05-04 16:00 | 18.25676 | 116.24268 | 33976 ft | 495 kts | 329° |
| 2026-05-04 16:00 | 18.31804 | 116.20937 | 33976 ft | 495 kts | 328° |
| 2026-05-04 16:01 | 18.37921 | 116.17609 | 33977 ft | 495 kts | 328° |
| 2026-05-04 16:01 | 18.44033 | 116.14281 | 33977 ft | 494 kts | 328° |
| 2026-05-04 16:02 | 18.50101 | 116.10975 | 33975 ft | 494 kts | 328° |
| 2026-05-04 16:03 | 18.59241 | 116.05990 | 33983 ft | 495 kts | 328° |
| 2026-05-04 16:03 | 18.65360 | 116.02650 | 33979 ft | 495 kts | 328° |
| 2026-05-04 16:04 | 18.71470 | 115.99310 | 33983 ft | 495 kts | 328° |
| 2026-05-04 16:04 | 18.80666 | 115.94280 | 33988 ft | 496 kts | 328° |
| 2026-05-04 16:05 | 18.86794 | 115.90926 | 33973 ft | 496 kts | 328° |
| 2026-05-04 16:06 | 18.95979 | 115.85891 | 33994 ft | 496 kts | 328° |
| 2026-05-04 16:07 | 19.08451 | 115.79615 | 33990 ft | 498 kts | 332° |
| 2026-05-04 16:08 | 19.21077 | 115.73689 | 33990 ft | 496 kts | 331° |
| 2026-05-04 16:09 | 19.36765 | 115.66148 | 33994 ft | 495 kts | 331° |
| 2026-05-04 16:10 | 19.49307 | 115.60108 | 33995 ft | 495 kts | 331° |
| 2026-05-04 16:11 | 19.61842 | 115.54063 | 33998 ft | 494 kts | 331° |
| 2026-05-04 16:12 | 19.80535 | 115.45028 | 34003 ft | 492 kts | 331° |
| 2026-05-04 16:13 | 19.92983 | 115.38999 | 34004 ft | 491 kts | 331° |
| 2026-05-04 16:14 | 20.05373 | 115.32987 | 34007 ft | 490 kts | 331° |
| 2026-05-04 16:16 | 20.20854 | 115.25461 | 34012 ft | 488 kts | 330° |
| 2026-05-04 16:17 | 20.36280 | 115.17945 | 34009 ft | 487 kts | 330° |
| 2026-05-04 16:18 | 20.48564 | 115.11947 | 34015 ft | 486 kts | 330° |
| 2026-05-04 16:19 | 20.63949 | 115.04421 | 34019 ft | 486 kts | 330° |
| 2026-05-04 16:20 | 20.79327 | 114.96882 | 34022 ft | 486 kts | 330° |
| 2026-05-04 16:22 | 20.94629 | 114.89364 | 34017 ft | 485 kts | 330° |
| 2026-05-04 16:23 | 21.13218 | 114.80613 | 34023 ft | 486 kts | 331° |
| 2026-05-04 16:25 | 21.31805 | 114.71836 | 34028 ft | 488 kts | 330° |
| 2026-05-04 16:26 | 21.52534 | 114.62017 | 34035 ft | 490 kts | 330° |
| 2026-05-04 16:28 | 21.68140 | 114.54605 | 34039 ft | 491 kts | 330° |
| 2026-05-04 16:29 | 21.89893 | 114.44242 | 34036 ft | 492 kts | 330° |
| 2026-05-04 16:31 | 22.05564 | 114.36756 | 34035 ft | 493 kts | 330° |
| 2026-05-04 16:32 | 22.24245 | 114.27808 | 34039 ft | 493 kts | 330° |
| 2026-05-04 16:33 | 22.36812 | 114.21775 | 34054 ft | 494 kts | 330° |
| 2026-05-04 16:34 | 22.46221 | 114.17250 | 34052 ft | 493 kts | 330° |
| 2026-05-04 16:35 | 22.64871 | 114.07993 | 34155 ft | 491 kts | 328° |
| 2026-05-04 16:36 | 22.74111 | 114.03180 | 34157 ft | 491 kts | 328° |
| 2026-05-04 16:37 | 22.83357 | 113.98411 | 34149 ft | 490 kts | 328° |
| 2026-05-04 16:38 | 22.95633 | 113.92078 | 34157 ft | 489 kts | 328° |
| 2026-05-04 16:39 | 23.10535 | 113.83418 | 34157 ft | 476 kts | 314° |
| 2026-05-04 16:40 | 23.15382 | 113.78616 | 34157 ft | 465 kts | 310° |
| 2026-05-04 16:40 | 23.20001 | 113.73766 | 34160 ft | 459 kts | 310° |
| 2026-05-04 16:41 | 23.31420 | 113.61725 | 34157 ft | 459 kts | 310° |
| 2026-05-04 16:43 | 23.42922 | 113.49649 | 34152 ft | 458 kts | 310° |
| 2026-05-04 16:43 | 23.49798 | 113.42415 | 34152 ft | 458 kts | 310° |
| 2026-05-04 16:45 | 23.63238 | 113.28071 | 34156 ft | 456 kts | 310° |
| 2026-05-04 16:46 | 23.68648 | 113.19785 | 34163 ft | 443 kts | 292° |
| 2026-05-04 16:46 | 23.71246 | 113.13695 | 34163 ft | 443 kts | 291° |
| 2026-05-04 16:47 | 23.77076 | 113.01848 | 34165 ft | 451 kts | 306° |
| 2026-05-04 16:48 | 23.84779 | 112.95737 | 34164 ft | 474 kts | 331° |
| 2026-05-04 16:48 | 23.87911 | 112.94530 | 34169 ft | 479 kts | 334° |
| 2026-05-04 16:49 | 24.00756 | 112.90360 | 34170 ft | 481 kts | 335° |
| 2026-05-04 16:50 | 24.13554 | 112.86126 | 34170 ft | 481 kts | 335° |
| 2026-05-04 16:51 | 24.23162 | 112.82931 | 34177 ft | 481 kts | 335° |
| 2026-05-04 16:52 | 24.35968 | 112.78663 | 34180 ft | 481 kts | 335° |
| 2026-05-04 16:53 | 24.44625 | 112.73807 | 34181 ft | 455 kts | 313° |
| 2026-05-04 16:54 | 24.47231 | 112.70945 | 34177 ft | 447 kts | 304° |